sensor_id;sensor_type;location;lat;lon;timestamp;temperature;humidity
37086;DHT22;23001;45.952;12.676;2023-02-01T06:37:52;2.50;99.90
37086;DHT22;23001;45.952;12.676;2023-02-01T06:40:18;2.70;99.90
37086;DHT22;23001;45.952;12.676;2023-02-01T06:45:47;2.70;99.90
37086;DHT22;23001;45.952;12.676;2023-02-01T07:03:12;3.20;99.90
37086;DHT22;23001;45.952;12.676;2023-02-01T07:12:26;3.40;99.90
37086;DHT22;23001;45.952;12.676;2023-02-01T07:15:16;3.40;99.90
37086;DHT22;23001;45.952;12.676;2023-02-01T07:18:06;3.50;99.90
37086;DHT22;23001;45.952;12.676;2023-02-01T08:22:23;3.30;99.90
37086;DHT22;23001;45.952;12.676;2023-02-01T08:24:53;3.40;99.90
37086;DHT22;23001;45.952;12.676;2023-02-01T08:27:27;3.50;99.90
37086;DHT22;23001;45.952;12.676;2023-02-01T08:29:53;3.60;99.90
37086;DHT22;23001;45.952;12.676;2023-02-01T08:32:19;3.70;99.90
37086;DHT22;23001;45.952;12.676;2023-02-01T08:34:47;3.80;99.90
37086;DHT22;23001;45.952;12.676;2023-02-01T08:37:13;3.90;99.90
37086;DHT22;23001;45.952;12.676;2023-02-01T08:39:39;3.90;99.90
37086;DHT22;23001;45.952;12.676;2023-02-01T08:42:16;4.00;99.90
37086;DHT22;23001;45.952;12.676;2023-02-01T09:20:04;5.00;99.90
37086;DHT22;23001;45.952;12.676;2023-02-01T09:26:08;5.30;99.90
37086;DHT22;23001;45.952;12.676;2023-02-01T09:29:22;5.40;99.90
37086;DHT22;23001;45.952;12.676;2023-02-01T09:31:48;5.50;99.90
37086;DHT22;23001;45.952;12.676;2023-02-01T10:05:00;7.00;99.90
37086;DHT22;23001;45.952;12.676;2023-02-01T10:26:20;7.40;99.90
37086;DHT22;23001;45.952;12.676;2023-02-01T10:29:20;7.50;99.90
37086;DHT22;23001;45.952;12.676;2023-02-01T10:36:16;7.70;99.90
37086;DHT22;23001;45.952;12.676;2023-02-01T10:39:05;7.70;99.90
37086;DHT22;23001;45.952;12.676;2023-02-01T10:41:36;7.70;99.90
37086;DHT22;23001;45.952;12.676;2023-02-01T10:44:10;7.70;99.90
37086;DHT22;23001;45.952;12.676;2023-02-01T10:55:38;7.90;99.90
37086;DHT22;23001;45.952;12.676;2023-02-01T11:08:47;7.90;99.90
37086;DHT22;23001;45.952;12.676;2023-02-01T11:11:58;8.00;99.90
37086;DHT22;23001;45.952;12.676;2023-02-01T11:21:10;8.10;99.90
37086;DHT22;23001;45.952;12.676;2023-02-01T11:23:42;8.20;99.90
37086;DHT22;23001;45.952;12.676;2023-02-01T11:26:23;8.10;99.90
37086;DHT22;23001;45.952;12.676;2023-02-01T11:29:01;8.10;99.90
37086;DHT22;23001;45.952;12.676;2023-02-01T11:32:00;8.10;99.90
37086;DHT22;23001;45.952;12.676;2023-02-01T11:41:31;8.30;99.90
37086;DHT22;23001;45.952;12.676;2023-02-01T11:44:01;8.30;99.90
37086;DHT22;23001;45.952;12.676;2023-02-01T11:46:41;8.20;99.90
37086;DHT22;23001;45.952;12.676;2023-02-01T11:49:25;8.40;99.90
37086;DHT22;23001;45.952;12.676;2023-02-01T11:56:37;8.30;99.90
37086;DHT22;23001;45.952;12.676;2023-02-01T12:15:41;8.40;99.90
37086;DHT22;23001;45.952;12.676;2023-02-01T12:22:14;8.50;99.90
37086;DHT22;23001;45.952;12.676;2023-02-01T12:28:04;8.50;99.90
37086;DHT22;23001;45.952;12.676;2023-02-01T12:46:44;8.60;99.90
37086;DHT22;23001;45.952;12.676;2023-02-01T12:49:19;8.60;99.90
37086;DHT22;23001;45.952;12.676;2023-02-01T12:51:57;8.60;99.90
37086;DHT22;23001;45.952;12.676;2023-02-01T12:54:53;8.60;99.90
37086;DHT22;23001;45.952;12.676;2023-02-01T12:57:38;8.50;99.90
37086;DHT22;23001;45.952;12.676;2023-02-01T13:00:40;8.50;99.90
37086;DHT22;23001;45.952;12.676;2023-02-01T13:03:34;8.50;99.90
37086;DHT22;23001;45.952;12.676;2023-02-01T13:06:15;8.50;99.90
37086;DHT22;23001;45.952;12.676;2023-02-01T13:09:44;8.50;99.90
37086;DHT22;23001;45.952;12.676;2023-02-01T13:12:15;8.50;99.90
37086;DHT22;23001;45.952;12.676;2023-02-01T13:21:34;8.70;99.90
37086;DHT22;23001;45.952;12.676;2023-02-01T13:43:48;8.80;99.90
37086;DHT22;23001;45.952;12.676;2023-02-01T13:46:57;8.80;99.90
37086;DHT22;23001;45.952;12.676;2023-02-01T13:49:47;8.80;99.90
37086;DHT22;23001;45.952;12.676;2023-02-01T13:53:04;8.90;99.90
37086;DHT22;23001;45.952;12.676;2023-02-01T13:56:13;8.90;99.90
37086;DHT22;23001;45.952;12.676;2023-02-01T14:09:31;8.80;99.90
37086;DHT22;23001;45.952;12.676;2023-02-01T14:24:27;8.80;99.90
37086;DHT22;23001;45.952;12.676;2023-02-01T14:27:20;8.80;99.90
37086;DHT22;23001;45.952;12.676;2023-02-01T14:30:01;8.70;99.90
37086;DHT22;23001;45.952;12.676;2023-02-01T14:32:32;8.80;99.90
37086;DHT22;23001;45.952;12.676;2023-02-01T14:35:01;8.80;99.90
37086;DHT22;23001;45.952;12.676;2023-02-01T14:40:37;8.60;99.90
37086;DHT22;23001;45.952;12.676;2023-02-01T14:52:41;8.60;99.90
37086;DHT22;23001;45.952;12.676;2023-02-01T14:55:17;8.50;99.90
37086;DHT22;23001;45.952;12.676;2023-02-01T15:49:01;7.70;99.90
37086;DHT22;23001;45.952;12.676;2023-02-01T16:03:46;7.50;99.90
37086;DHT22;23001;45.952;12.676;2023-02-01T16:08:54;7.20;99.90
37086;DHT22;23001;45.952;12.676;2023-02-01T16:14:30;7.10;99.90
37086;DHT22;23001;45.952;12.676;2023-02-01T16:16:58;7.00;99.90
37086;DHT22;23001;45.952;12.676;2023-02-01T16:19:37;6.90;99.90
37086;DHT22;23001;45.952;12.676;2023-02-01T16:22:02;6.80;99.90
37086;DHT22;23001;45.952;12.676;2023-02-01T16:24:32;6.70;99.90
37086;DHT22;23001;45.952;12.676;2023-02-01T16:26:58;6.70;99.90
37086;DHT22;23001;45.952;12.676;2023-02-01T16:29:24;6.60;99.90
37086;DHT22;23001;45.952;12.676;2023-02-01T16:31:50;6.50;99.90
37086;DHT22;23001;45.952;12.676;2023-02-01T16:37:39;6.20;99.90
37086;DHT22;23001;45.952;12.676;2023-02-01T16:40:05;6.20;99.90
37086;DHT22;23001;45.952;12.676;2023-02-01T16:42:31;6.20;99.90
37086;DHT22;23001;45.952;12.676;2023-02-01T16:44:57;6.10;99.90
37086;DHT22;23001;45.952;12.676;2023-02-01T16:47:23;6.10;99.90
37086;DHT22;23001;45.952;12.676;2023-02-01T16:49:49;6.00;99.90
37086;DHT22;23001;45.952;12.676;2023-02-01T16:52:18;6.10;99.90
37086;DHT22;23001;45.952;12.676;2023-02-01T16:54:44;6.10;99.90
37086;DHT22;23001;45.952;12.676;2023-02-01T16:57:15;6.00;99.90
37086;DHT22;23001;45.952;12.676;2023-02-01T17:09:21;6.00;99.90
37086;DHT22;23001;45.952;12.676;2023-02-01T17:25:03;5.70;99.90
37086;DHT22;23001;45.952;12.676;2023-02-01T17:27:32;5.50;99.90
37086;DHT22;23001;45.952;12.676;2023-02-01T17:29:58;5.50;99.90
37086;DHT22;23001;45.952;12.676;2023-02-01T17:32:25;5.40;99.90
37086;DHT22;23001;45.952;12.676;2023-02-01T17:34:53;5.40;99.90
37086;DHT22;23001;45.952;12.676;2023-02-01T17:37:31;5.30;99.90
37086;DHT22;23001;45.952;12.676;2023-02-01T17:39:57;5.30;99.90
37086;DHT22;23001;45.952;12.676;2023-02-01T17:42:28;5.30;99.90
37086;DHT22;23001;45.952;12.676;2023-02-01T17:44:57;5.20;99.90
37086;DHT22;23001;45.952;12.676;2023-02-01T17:47:23;5.10;99.90
37086;DHT22;23001;45.952;12.676;2023-02-01T17:49:53;5.10;99.90
37086;DHT22;23001;45.952;12.676;2023-02-01T17:52:25;5.20;99.90
37086;DHT22;23001;45.952;12.676;2023-02-01T17:54:51;5.10;99.90
37086;DHT22;23001;45.952;12.676;2023-02-01T17:57:20;5.00;99.90
37086;DHT22;23001;45.952;12.676;2023-02-01T17:59:46;5.00;99.90
37086;DHT22;23001;45.952;12.676;2023-02-01T18:03:27;5.00;99.90
37086;DHT22;23001;45.952;12.676;2023-02-01T18:05:42;4.90;99.90
37086;DHT22;23001;45.952;12.676;2023-02-01T18:08:22;4.80;99.90
37086;DHT22;23001;45.952;12.676;2023-02-01T18:10:52;4.90;99.90
37086;DHT22;23001;45.952;12.676;2023-02-01T18:13:19;4.90;99.90
37086;DHT22;23001;45.952;12.676;2023-02-01T18:15:45;4.90;99.90
37086;DHT22;23001;45.952;12.676;2023-02-01T18:18:10;4.80;99.90
37086;DHT22;23001;45.952;12.676;2023-02-01T18:20:39;4.70;99.90
37086;DHT22;23001;45.952;12.676;2023-02-01T18:23:16;4.70;99.90
37086;DHT22;23001;45.952;12.676;2023-02-01T18:25:43;4.70;99.90
37086;DHT22;23001;45.952;12.676;2023-02-01T18:28:12;4.60;99.90
37086;DHT22;23001;45.952;12.676;2023-02-01T18:30:46;4.60;99.90
37086;DHT22;23001;45.952;12.676;2023-02-01T18:33:15;4.60;99.90
37086;DHT22;23001;45.952;12.676;2023-02-01T18:35:43;4.50;99.90
37086;DHT22;23001;45.952;12.676;2023-02-01T18:38:09;4.60;99.90
37086;DHT22;23001;45.952;12.676;2023-02-01T18:40:38;4.60;99.90
37086;DHT22;23001;45.952;12.676;2023-02-01T18:43:05;4.40;99.90
37086;DHT22;23001;45.952;12.676;2023-02-01T18:45:37;4.50;99.90
37086;DHT22;23001;45.952;12.676;2023-02-01T18:48:04;4.60;99.90
37086;DHT22;23001;45.952;12.676;2023-02-01T18:50:34;4.50;99.90
37086;DHT22;23001;45.952;12.676;2023-02-01T18:53:00;4.30;99.90
37086;DHT22;23001;45.952;12.676;2023-02-01T18:55:30;4.50;99.90
37086;DHT22;23001;45.952;12.676;2023-02-01T18:58:28;4.50;99.90
37086;DHT22;23001;45.952;12.676;2023-02-01T19:00:55;4.30;99.90
37086;DHT22;23001;45.952;12.676;2023-02-01T19:03:22;4.40;99.90
37086;DHT22;23001;45.952;12.676;2023-02-01T19:05:54;4.40;99.90
37086;DHT22;23001;45.952;12.676;2023-02-01T19:08:20;4.30;99.90
37086;DHT22;23001;45.952;12.676;2023-02-01T19:10:46;4.30;99.90
37086;DHT22;23001;45.952;12.676;2023-02-01T19:13:13;4.20;99.90
37086;DHT22;23001;45.952;12.676;2023-02-01T19:15:40;4.10;99.90
37086;DHT22;23001;45.952;12.676;2023-02-01T19:18:07;4.20;99.90
37086;DHT22;23001;45.952;12.676;2023-02-01T19:20:35;4.00;99.90
37086;DHT22;23001;45.952;12.676;2023-02-01T19:23:01;3.90;99.90
37086;DHT22;23001;45.952;12.676;2023-02-01T19:25:29;3.90;99.90
37086;DHT22;23001;45.952;12.676;2023-02-01T19:27:57;4.00;99.90
37086;DHT22;23001;45.952;12.676;2023-02-01T19:30:29;4.00;99.90
37086;DHT22;23001;45.952;12.676;2023-02-01T19:32:54;4.00;99.90
37086;DHT22;23001;45.952;12.676;2023-02-01T19:35:20;4.00;99.90
37086;DHT22;23001;45.952;12.676;2023-02-01T19:37:47;4.00;99.90
37086;DHT22;23001;45.952;12.676;2023-02-01T19:40:16;4.00;99.90
37086;DHT22;23001;45.952;12.676;2023-02-01T19:42:42;4.00;99.90
37086;DHT22;23001;45.952;12.676;2023-02-01T19:45:09;3.90;99.90
37086;DHT22;23001;45.952;12.676;2023-02-01T19:47:35;3.90;99.90
37086;DHT22;23001;45.952;12.676;2023-02-01T19:50:01;3.80;99.90
37086;DHT22;23001;45.952;12.676;2023-02-01T19:52:31;3.90;99.90
37086;DHT22;23001;45.952;12.676;2023-02-01T19:54:57;3.90;99.90
37086;DHT22;23001;45.952;12.676;2023-02-01T19:57:26;3.80;99.90
37086;DHT22;23001;45.952;12.676;2023-02-01T19:59:51;3.60;99.90
37086;DHT22;23001;45.952;12.676;2023-02-01T20:02:17;3.60;99.90
37086;DHT22;23001;45.952;12.676;2023-02-01T20:04:43;3.60;99.90
37086;DHT22;23001;45.952;12.676;2023-02-01T20:07:12;3.50;99.90
37086;DHT22;23001;45.952;12.676;2023-02-01T20:09:39;3.50;99.90
37086;DHT22;23001;45.952;12.676;2023-02-01T20:12:09;3.60;99.90
37086;DHT22;23001;45.952;12.676;2023-02-01T20:14:37;3.60;99.90
37086;DHT22;23001;45.952;12.676;2023-02-01T20:17:03;3.60;99.90
37086;DHT22;23001;45.952;12.676;2023-02-01T20:19:30;3.60;99.90
37086;DHT22;23001;45.952;12.676;2023-02-01T20:21:56;3.50;99.90
37086;DHT22;23001;45.952;12.676;2023-02-01T20:24:22;3.50;99.90
37086;DHT22;23001;45.952;12.676;2023-02-01T20:26:48;3.40;99.90
37086;DHT22;23001;45.952;12.676;2023-02-01T20:29:14;3.40;99.90
37086;DHT22;23001;45.952;12.676;2023-02-01T20:31:42;3.30;99.90
37086;DHT22;23001;45.952;12.676;2023-02-01T20:37:33;3.40;99.90
37086;DHT22;23001;45.952;12.676;2023-02-01T20:40:03;3.20;99.90
37086;DHT22;23001;45.952;12.676;2023-02-01T20:42:29;3.10;99.90
37086;DHT22;23001;45.952;12.676;2023-02-01T20:44:57;3.10;99.90
37086;DHT22;23001;45.952;12.676;2023-02-01T20:47:28;3.20;99.90
37086;DHT22;23001;45.952;12.676;2023-02-01T20:50:21;3.20;99.90
37086;DHT22;23001;45.952;12.676;2023-02-01T21:02:25;3.00;99.90
37086;DHT22;23001;45.952;12.676;2023-02-01T21:04:51;2.90;99.90
37086;DHT22;23001;45.952;12.676;2023-02-01T21:07:17;2.80;99.90
37086;DHT22;23001;45.952;12.676;2023-02-01T21:09:43;3.00;99.90
37086;DHT22;23001;45.952;12.676;2023-02-01T21:12:09;3.10;99.90
37086;DHT22;23001;45.952;12.676;2023-02-01T21:14:35;3.00;99.90
37086;DHT22;23001;45.952;12.676;2023-02-01T21:17:01;2.90;99.90
37086;DHT22;23001;45.952;12.676;2023-02-01T21:19:27;3.00;99.90
37086;DHT22;23001;45.952;12.676;2023-02-01T21:21:53;3.00;99.90
37086;DHT22;23001;45.952;12.676;2023-02-01T21:24:30;3.10;99.90
37086;DHT22;23001;45.952;12.676;2023-02-01T21:27:03;3.10;99.90
37086;DHT22;23001;45.952;12.676;2023-02-01T21:29:29;3.10;99.90
37086;DHT22;23001;45.952;12.676;2023-02-01T21:31:57;3.10;99.90
37086;DHT22;23001;45.952;12.676;2023-02-01T21:34:23;3.10;99.90
37086;DHT22;23001;45.952;12.676;2023-02-01T21:36:49;3.00;99.90
37086;DHT22;23001;45.952;12.676;2023-02-01T21:39:18;3.00;99.90
37086;DHT22;23001;45.952;12.676;2023-02-01T21:41:44;2.90;99.90
37086;DHT22;23001;45.952;12.676;2023-02-01T21:44:31;2.90;99.90
37086;DHT22;23001;45.952;12.676;2023-02-01T21:47:00;2.80;99.90
37086;DHT22;23001;45.952;12.676;2023-02-01T21:49:26;2.70;99.90
37086;DHT22;23001;45.952;12.676;2023-02-01T21:51:54;2.80;99.90
37086;DHT22;23001;45.952;12.676;2023-02-01T21:54:19;2.80;99.90
37086;DHT22;23001;45.952;12.676;2023-02-01T21:56:45;2.70;99.90
37086;DHT22;23001;45.952;12.676;2023-02-01T21:59:12;2.60;99.90
37086;DHT22;23001;45.952;12.676;2023-02-01T22:01:39;2.70;99.90
37086;DHT22;23001;45.952;12.676;2023-02-01T22:04:05;2.70;99.90
37086;DHT22;23001;45.952;12.676;2023-02-01T22:06:40;2.70;99.90
37086;DHT22;23001;45.952;12.676;2023-02-01T22:09:09;2.70;99.90
37086;DHT22;23001;45.952;12.676;2023-02-01T22:14:49;2.60;99.90
37086;DHT22;23001;45.952;12.676;2023-02-01T22:17:14;2.60;99.90
37086;DHT22;23001;45.952;12.676;2023-02-01T22:19:51;2.70;99.90
37086;DHT22;23001;45.952;12.676;2023-02-01T22:22:17;2.70;99.90
37086;DHT22;23001;45.952;12.676;2023-02-01T22:24:42;2.80;99.90
37086;DHT22;23001;45.952;12.676;2023-02-01T22:27:11;2.70;99.90
37086;DHT22;23001;45.952;12.676;2023-02-01T22:29:41;2.60;99.90
37086;DHT22;23001;45.952;12.676;2023-02-01T22:32:21;2.60;99.90
37086;DHT22;23001;45.952;12.676;2023-02-01T22:34:47;2.60;99.90
37086;DHT22;23001;45.952;12.676;2023-02-01T22:37:17;2.60;99.90
37086;DHT22;23001;45.952;12.676;2023-02-01T22:39:43;2.60;99.90
37086;DHT22;23001;45.952;12.676;2023-02-01T22:42:09;2.60;99.90
37086;DHT22;23001;45.952;12.676;2023-02-01T22:44:40;2.60;99.90
37086;DHT22;23001;45.952;12.676;2023-02-01T22:47:06;2.60;99.90
37086;DHT22;23001;45.952;12.676;2023-02-01T22:49:35;2.60;99.90
37086;DHT22;23001;45.952;12.676;2023-02-01T22:52:06;2.60;99.90
37086;DHT22;23001;45.952;12.676;2023-02-01T22:54:32;2.60;99.90
37086;DHT22;23001;45.952;12.676;2023-02-01T22:57:01;2.60;99.90
37086;DHT22;23001;45.952;12.676;2023-02-01T23:09:42;2.80;99.90
37086;DHT22;23001;45.952;12.676;2023-02-01T23:12:08;2.80;99.90
37086;DHT22;23001;45.952;12.676;2023-02-01T23:21:38;2.80;99.90
37086;DHT22;23001;45.952;12.676;2023-02-01T23:24:04;2.70;99.90
37086;DHT22;23001;45.952;12.676;2023-02-01T23:36:46;2.80;99.90
37086;DHT22;23001;45.952;12.676;2023-02-01T23:39:12;2.70;99.90
37086;DHT22;23001;45.952;12.676;2023-02-01T23:51:59;2.50;99.90
37086;DHT22;23001;45.952;12.676;2023-02-01T23:54:53;2.50;99.90
37086;DHT22;23001;45.952;12.676;2023-02-01T23:57:19;2.40;99.90
37086;DHT22;23001;45.952;12.676;2023-02-01T23:59:45;2.40;99.90
